createdAt,value
2017-08-05T00:00:13.659Z,76.36
2017-08-05T00:02:42.967Z,76.25
2017-08-05T00:05:12.468Z,76.21
2017-08-05T00:07:41.762Z,76.28
2017-08-05T00:10:11.242Z,76.83
2017-08-05T00:12:40.681Z,77.93
2017-08-05T00:15:10.203Z,78.63
2017-08-05T00:17:39.649Z,78.70
2017-08-05T00:20:09.156Z,78.89
2017-08-05T00:22:38.624Z,79.09
2017-08-05T00:25:08.140Z,79.54
2017-08-05T00:27:37.571Z,79.62
2017-08-05T00:30:07.061Z,79.80
2017-08-05T00:32:36.522Z,80.01
2017-08-05T00:35:06.037Z,80.36
2017-08-05T00:37:35.499Z,80.51
2017-08-05T00:40:05.005Z,80.58
2017-08-05T00:42:34.453Z,80.77
2017-08-05T00:45:03.971Z,80.57
2017-08-05T00:47:33.409Z,80.49
2017-08-05T00:50:02.928Z,80.34
2017-08-05T00:52:32.378Z,80.41
2017-08-05T00:55:01.959Z,80.19
2017-08-05T00:57:31.436Z,75.90
2017-08-05T01:00:00.912Z,77.30
2017-08-05T01:02:30.232Z,78.64
2017-08-05T01:04:59.697Z,76.92
2017-08-05T01:07:29.262Z,73.43
2017-08-05T01:09:58.718Z,77.01
2017-08-05T01:12:28.190Z,78.66
2017-08-05T01:14:57.660Z,78.54
2017-08-05T01:17:27.109Z,76.14
2017-08-05T01:19:56.570Z,60.45
2017-08-05T01:22:26.060Z,61.65
2017-08-05T01:24:55.514Z,67.75
2017-08-05T01:27:24.945Z,69.93
2017-08-05T01:29:54.396Z,67.56
2017-08-05T01:32:23.832Z,70.46
2017-08-05T01:34:53.285Z,73.16
2017-08-05T01:37:22.734Z,74.39
2017-08-05T01:39:52.180Z,75.02
2017-08-05T01:42:21.609Z,73.71
2017-08-05T01:44:51.117Z,73.68
2017-08-05T01:47:20.569Z,73.44
2017-08-05T01:49:49.692Z,73.45
2017-08-05T01:52:19.147Z,73.25
2017-08-05T01:54:48.589Z,73.62
2017-08-05T01:57:18.035Z,73.66
2017-08-05T01:59:48.424Z,73.83
2017-08-05T02:02:17.865Z,73.08
2017-08-05T02:04:47.321Z,72.36
2017-08-05T02:07:16.764Z,70.91
2017-08-05T02:09:46.221Z,69.78
2017-08-05T02:12:15.662Z,69.26
2017-08-05T02:14:45.105Z,69.26
2017-08-05T02:17:14.547Z,69.85
2017-08-05T02:19:43.990Z,69.81
2017-08-05T02:22:13.434Z,68.48
2017-08-05T02:24:42.900Z,68.50
2017-08-05T02:27:12.348Z,68.53
2017-08-05T02:29:41.797Z,68.84
2017-08-05T02:32:11.247Z,68.56
2017-08-05T02:34:40.686Z,67.89
2017-08-05T02:37:10.157Z,67.64
2017-08-05T02:39:45.611Z,68.07
2017-08-05T02:42:15.756Z,68.58
2017-08-05T02:44:45.036Z,68.50
2017-08-05T02:47:14.484Z,67.77
2017-08-05T02:49:43.935Z,67.45
2017-08-05T02:52:13.369Z,67.70
2017-08-05T02:54:42.822Z,67.64
2017-08-05T02:57:12.290Z,66.82
2017-08-05T02:59:41.725Z,66.60
2017-08-05T03:02:11.164Z,66.64
2017-08-05T03:04:40.620Z,66.28
2017-08-05T03:07:10.055Z,65.95
2017-08-05T03:09:39.496Z,65.90
2017-08-05T03:12:08.956Z,65.88
2017-08-05T03:14:38.413Z,65.67
2017-08-05T03:17:07.847Z,65.66
2017-08-05T03:19:37.302Z,64.83
2017-08-05T03:22:06.775Z,64.60
2017-08-05T03:24:36.251Z,64.00
2017-08-05T03:27:05.773Z,64.58
2017-08-05T03:29:35.205Z,63.88
2017-08-05T03:32:04.668Z,63.79
2017-08-05T03:34:34.125Z,63.63
2017-08-05T03:37:03.568Z,63.84
2017-08-05T03:39:33.013Z,64.77
2017-08-05T03:42:02.475Z,66.90
2017-08-05T03:44:31.953Z,67.19
2017-08-05T03:47:01.485Z,67.68
2017-08-05T03:49:30.926Z,68.15
2017-08-05T03:52:00.376Z,68.27
2017-08-05T03:54:29.827Z,68.52
2017-08-05T03:56:59.285Z,68.24
2017-08-05T03:59:28.714Z,68.34
2017-08-05T04:01:58.169Z,68.20
2017-08-05T04:04:27.612Z,68.60
2017-08-05T04:06:57.070Z,68.64
2017-08-05T04:09:26.507Z,68.12
2017-08-05T04:11:55.957Z,67.79
2017-08-05T04:14:25.421Z,67.18
2017-08-05T04:16:54.676Z,66.57
2017-08-05T04:19:24.184Z,66.54
2017-08-05T04:21:53.625Z,66.77
2017-08-05T04:24:23.068Z,67.22
2017-08-05T04:26:52.512Z,67.29
2017-08-05T04:29:21.964Z,67.28
2017-08-05T04:31:51.426Z,67.51
2017-08-05T04:34:20.880Z,66.64
2017-08-05T04:36:50.343Z,65.98
2017-08-05T04:39:19.768Z,65.69
2017-08-05T04:41:49.237Z,65.21
2017-08-05T04:44:18.684Z,64.21
2017-08-05T04:46:48.129Z,64.02
2017-08-05T04:49:17.593Z,64.12
2017-08-05T04:51:47.031Z,64.37
2017-08-05T04:54:16.473Z,63.97
2017-08-05T04:56:45.920Z,64.05
2017-08-05T04:59:15.373Z,64.71
2017-08-05T05:01:44.822Z,65.18
2017-08-05T05:04:14.282Z,65.37
2017-08-05T05:06:43.718Z,65.66
2017-08-05T05:09:13.166Z,66.52
2017-08-05T05:11:42.609Z,66.86
2017-08-05T05:14:12.044Z,66.64
2017-08-05T05:16:41.488Z,64.99
2017-08-05T05:19:10.943Z,64.87
2017-08-05T05:21:40.384Z,64.38
2017-08-05T05:24:09.839Z,64.22
2017-08-05T05:26:39.276Z,64.19
2017-08-05T05:29:08.729Z,63.64
2017-08-05T05:31:38.168Z,63.19
2017-08-05T05:34:07.662Z,62.62
2017-08-05T05:36:37.091Z,61.45
2017-08-05T05:39:06.616Z,61.21
2017-08-05T05:41:36.059Z,60.24
2017-08-05T05:44:05.513Z,59.66
2017-08-05T05:46:34.967Z,59.43
2017-08-05T05:49:04.416Z,60.07
2017-08-05T05:51:33.845Z,58.49
2017-08-05T05:54:03.292Z,57.98
2017-08-05T05:56:32.756Z,58.56
2017-08-05T05:59:02.200Z,58.66
2017-08-05T06:01:31.632Z,57.66
2017-08-05T06:04:01.072Z,58.37
2017-08-05T06:06:30.513Z,58.02
2017-08-05T06:08:59.947Z,57.87
2017-08-05T06:11:29.456Z,57.79
2017-08-05T06:13:58.932Z,57.37
2017-08-05T06:16:28.396Z,57.49
2017-08-05T06:18:57.877Z,58.42
2017-08-05T06:21:27.352Z,57.81
2017-08-05T06:23:56.787Z,57.33
2017-08-05T06:26:26.265Z,56.90
2017-08-05T06:28:55.701Z,57.55
2017-08-05T06:31:25.164Z,57.59
2017-08-05T06:33:54.619Z,56.62
2017-08-05T06:36:24.060Z,55.84
2017-08-05T06:38:53.510Z,55.75
2017-08-05T06:41:22.951Z,54.46
2017-08-05T06:43:52.392Z,54.82
2017-08-05T06:46:21.832Z,54.09
2017-08-05T06:48:51.283Z,53.71
2017-08-05T06:51:20.720Z,52.61
2017-08-05T06:53:50.169Z,52.36
2017-08-05T06:56:19.630Z,51.98
2017-08-05T06:58:49.073Z,53.58
2017-08-05T07:01:20.247Z,52.93
2017-08-05T07:03:49.802Z,51.55
2017-08-05T07:06:19.245Z,50.56
2017-08-05T07:08:48.713Z,50.28
2017-08-05T07:11:18.151Z,50.34
2017-08-05T07:13:47.608Z,48.63
2017-08-05T07:16:17.092Z,48.55
2017-08-05T07:18:46.552Z,49.24
2017-08-05T07:21:16.001Z,47.61
2017-08-05T07:23:45.503Z,46.34
2017-08-05T07:26:14.937Z,47.37
2017-08-05T07:28:44.371Z,47.33
2017-08-05T07:31:13.810Z,48.30
2017-08-05T07:33:43.252Z,49.40
2017-08-05T07:36:12.552Z,49.39
2017-08-05T07:38:41.986Z,49.50
2017-08-05T07:41:11.433Z,48.88
2017-08-05T07:43:40.886Z,47.34
2017-08-05T07:46:10.320Z,47.08
2017-08-05T07:48:39.756Z,46.84
2017-08-05T07:51:09.205Z,46.91
2017-08-05T07:53:38.661Z,47.38
2017-08-05T07:56:08.107Z,46.42
2017-08-05T07:58:37.653Z,46.14
2017-08-05T08:01:07.113Z,46.29
2017-08-05T08:03:36.575Z,47.41
2017-08-05T08:06:06.012Z,47.82
2017-08-05T08:08:35.469Z,48.67
2017-08-05T08:11:04.920Z,48.89
2017-08-05T08:13:34.369Z,49.36
2017-08-05T08:16:03.831Z,47.98
2017-08-05T08:18:33.270Z,47.64
2017-08-05T08:21:02.705Z,46.55
2017-08-05T08:23:32.150Z,47.21
2017-08-05T08:26:01.606Z,46.22
2017-08-05T08:28:31.027Z,43.30
2017-08-05T08:31:00.483Z,43.57
2017-08-05T08:33:29.976Z,43.10
2017-08-05T08:35:59.422Z,42.21
2017-08-05T08:38:28.865Z,41.45
2017-08-05T08:40:58.320Z,41.28
2017-08-05T08:43:27.753Z,38.64
2017-08-05T08:45:57.221Z,37.31
2017-08-05T08:48:26.701Z,37.13
2017-08-05T08:50:56.166Z,36.19
2017-08-05T08:53:25.639Z,35.77
2017-08-05T08:55:55.185Z,35.51
2017-08-05T08:58:24.655Z,36.80
2017-08-05T09:00:54.147Z,35.90
2017-08-05T09:03:23.669Z,35.18
2017-08-05T09:05:53.138Z,36.22
2017-08-05T09:08:22.576Z,37.09
2017-08-05T09:10:52.031Z,36.04
2017-08-05T09:13:21.480Z,34.76
2017-08-05T09:15:50.956Z,34.88
2017-08-05T09:18:20.401Z,34.88
2017-08-05T09:20:49.851Z,35.71
2017-08-05T09:23:19.297Z,35.97
2017-08-05T09:25:48.778Z,35.57
2017-08-05T09:28:18.283Z,36.15
2017-08-05T09:30:47.735Z,35.84
2017-08-05T09:33:17.190Z,35.70
2017-08-05T09:35:46.634Z,36.39
2017-08-05T09:38:16.076Z,36.29
2017-08-05T09:40:45.565Z,36.84
2017-08-05T09:43:15.009Z,37.36
2017-08-05T09:45:44.530Z,36.25
2017-08-05T09:48:14.068Z,36.81
2017-08-05T09:50:43.527Z,36.50
2017-08-05T09:53:12.989Z,36.27
2017-08-05T09:55:42.428Z,36.04
2017-08-05T09:58:11.888Z,37.37
2017-08-05T10:00:41.332Z,36.46
2017-08-05T10:03:10.769Z,37.50
2017-08-05T10:05:40.229Z,35.64
2017-08-05T10:08:09.701Z,36.86
2017-08-05T10:10:39.185Z,38.08
2017-08-05T10:13:08.632Z,34.95
2017-08-05T10:15:38.107Z,34.67
2017-08-05T10:18:07.548Z,34.41
2017-08-05T10:20:36.990Z,34.49
2017-08-05T10:23:06.447Z,33.92
2017-08-05T10:25:35.890Z,35.34
2017-08-05T10:28:05.326Z,35.07
2017-08-05T10:30:34.900Z,35.96
2017-08-05T10:33:04.339Z,35.58
2017-08-05T10:35:33.823Z,35.64
2017-08-05T10:38:03.252Z,34.72
2017-08-05T10:40:32.709Z,35.79
2017-08-05T10:43:02.153Z,35.40
2017-08-05T10:45:31.610Z,35.93
2017-08-05T10:48:01.044Z,35.61
2017-08-05T10:50:30.487Z,35.13
2017-08-05T10:52:59.966Z,35.59
2017-08-05T10:55:29.398Z,35.07
2017-08-05T10:57:58.967Z,34.27
2017-08-05T11:00:29.095Z,34.93
2017-08-05T11:02:58.369Z,33.66
2017-08-05T11:05:27.818Z,34.06
2017-08-05T11:07:57.422Z,34.15
2017-08-05T11:10:26.876Z,34.36
2017-08-05T11:12:56.345Z,34.03
2017-08-05T11:15:25.792Z,34.10
2017-08-05T11:17:55.285Z,33.35
2017-08-05T11:20:24.716Z,35.63
2017-08-05T11:22:54.271Z,35.10
2017-08-05T11:25:23.757Z,34.33
2017-08-05T11:27:53.233Z,37.70
2017-08-05T11:30:22.698Z,35.52
2017-08-05T11:35:30.720Z,34.97
2017-08-05T11:38:00.156Z,33.98
2017-08-05T11:40:29.635Z,34.13
2017-08-05T11:42:59.086Z,33.91
2017-08-05T11:45:28.535Z,34.25
2017-08-05T11:47:57.981Z,35.13
2017-08-05T11:50:27.434Z,35.43
2017-08-05T11:52:56.896Z,35.11
2017-08-05T11:55:26.321Z,35.68
2017-08-05T11:57:55.789Z,34.77
2017-08-05T12:00:25.306Z,34.82
2017-08-05T12:02:54.607Z,35.52
2017-08-05T12:05:24.083Z,35.66
2017-08-05T12:07:53.524Z,35.15
2017-08-05T12:10:23.012Z,35.58
2017-08-05T12:12:52.453Z,36.21
2017-08-05T12:15:21.951Z,34.48
2017-08-05T12:17:51.392Z,34.61
2017-08-05T12:20:20.878Z,34.88
2017-08-05T12:22:50.327Z,34.98
2017-08-05T12:25:19.828Z,35.42
2017-08-05T12:27:49.269Z,33.34
2017-08-05T12:30:18.738Z,32.59
2017-08-05T12:32:48.189Z,31.80
2017-08-05T12:35:17.702Z,29.10
2017-08-05T12:37:47.133Z,29.18
2017-08-05T12:40:16.607Z,29.44
2017-08-05T12:42:46.080Z,29.19
2017-08-05T12:45:15.548Z,27.91
2017-08-05T12:47:45.001Z,28.90
2017-08-05T12:50:14.481Z,27.58
2017-08-05T12:52:44.024Z,26.28
2017-08-05T12:55:13.473Z,24.62
2017-08-05T12:57:42.948Z,24.99
2017-08-05T13:00:12.424Z,23.96
2017-08-05T13:02:41.861Z,25.55
2017-08-05T13:05:11.427Z,24.22
2017-08-05T13:07:41.238Z,22.76
2017-08-05T13:10:10.813Z,21.74
2017-08-05T13:12:40.326Z,22.72
2017-08-05T13:15:10.225Z,21.79
2017-08-05T13:17:39.813Z,23.11
2017-08-05T13:20:09.291Z,22.17
2017-08-05T13:22:38.844Z,20.45
2017-08-05T13:25:08.443Z,21.69
2017-08-05T13:27:38.015Z,21.07
2017-08-05T13:30:07.950Z,22.89
2017-08-05T13:32:37.416Z,22.43
2017-08-05T13:35:07.484Z,20.77
2017-08-05T13:37:37.788Z,20.81
2017-08-05T13:40:07.694Z,20.59
2017-08-05T13:42:37.524Z,20.32
2017-08-05T13:45:07.185Z,20.89
2017-08-05T13:47:36.776Z,20.20
2017-08-05T13:50:06.400Z,19.13
2017-08-05T13:52:36.082Z,19.17
2017-08-05T13:55:05.622Z,18.83
2017-08-05T13:57:35.984Z,19.64
2017-08-05T14:00:05.481Z,18.91
2017-08-05T14:02:34.970Z,21.04
2017-08-05T14:05:04.725Z,21.86
2017-08-05T14:07:34.672Z,20.52
2017-08-05T14:10:04.410Z,21.54
2017-08-05T14:12:34.012Z,20.34
2017-08-05T14:15:03.587Z,20.80
2017-08-05T14:17:33.462Z,20.84
2017-08-05T14:20:03.485Z,21.45
2017-08-05T14:22:33.343Z,21.12
2017-08-05T14:25:03.433Z,19.67
2017-08-05T14:27:33.283Z,19.09
2017-08-05T14:30:03.006Z,19.65
2017-08-05T14:32:32.685Z,20.07
2017-08-05T14:35:02.269Z,20.33
2017-08-05T14:37:32.135Z,20.05
2017-08-05T14:40:01.935Z,20.43
2017-08-05T14:42:31.761Z,19.04
2017-08-05T14:45:01.661Z,19.76
2017-08-05T14:47:31.154Z,19.65
2017-08-05T14:50:00.980Z,21.27
2017-08-05T14:52:30.651Z,21.60
2017-08-05T14:55:00.383Z,21.23
2017-08-05T14:57:29.826Z,21.32
2017-08-05T14:59:59.407Z,23.00
2017-08-05T15:02:28.951Z,23.32
2017-08-05T15:04:58.516Z,23.19
2017-08-05T15:07:28.001Z,23.34
2017-08-05T15:09:57.571Z,23.66
2017-08-05T15:12:27.098Z,23.28
2017-08-05T15:14:56.556Z,25.31
2017-08-05T15:17:26.856Z,21.42
2017-08-05T15:19:56.792Z,22.28
2017-08-05T15:22:26.625Z,22.71
2017-08-05T15:24:56.749Z,23.22
2017-08-05T15:27:26.758Z,23.29
2017-08-05T15:29:56.954Z,23.71
2017-08-05T15:32:26.421Z,23.66
2017-08-05T15:34:56.879Z,24.28
2017-08-05T15:37:26.360Z,25.71
2017-08-05T15:39:56.090Z,24.12
2017-08-05T15:42:25.569Z,24.45
2017-08-05T15:44:55.030Z,24.63
2017-08-05T15:47:24.468Z,23.95
2017-08-05T15:49:53.903Z,23.72
2017-08-05T15:52:23.340Z,22.34
2017-08-05T15:54:52.798Z,23.01
2017-08-05T15:57:22.941Z,22.43
2017-08-05T15:59:52.399Z,24.16
2017-08-05T16:02:21.869Z,25.00
2017-08-05T16:04:51.310Z,23.68
2017-08-05T16:07:20.751Z,24.27
2017-08-05T16:09:50.193Z,23.91
2017-08-05T16:12:19.656Z,23.68
2017-08-05T16:14:49.182Z,22.43
2017-08-05T16:17:18.643Z,24.02
2017-08-05T16:19:48.101Z,24.89
2017-08-05T16:22:17.528Z,23.93
2017-08-05T16:24:46.975Z,26.13
2017-08-05T16:27:16.450Z,25.31
2017-08-05T16:29:45.899Z,25.08
2017-08-05T16:32:15.356Z,25.52
2017-08-05T16:34:44.812Z,25.46
2017-08-05T16:37:14.245Z,25.22
2017-08-05T16:39:43.747Z,25.06
2017-08-05T16:42:13.184Z,25.41
2017-08-05T16:44:42.665Z,25.77
2017-08-05T16:47:12.117Z,26.34
2017-08-05T16:49:41.577Z,27.18
2017-08-05T16:52:11.070Z,26.61
2017-08-05T16:54:40.497Z,27.62
2017-08-05T16:57:09.972Z,27.96
2017-08-05T16:59:39.446Z,29.00
2017-08-05T17:02:08.936Z,29.93
2017-08-05T17:04:38.404Z,32.51
2017-08-05T17:07:07.855Z,33.50
2017-08-05T17:09:37.324Z,34.69
2017-08-05T17:12:06.854Z,36.01
2017-08-05T17:14:36.329Z,36.62
2017-08-05T17:17:05.764Z,39.01
2017-08-05T17:19:35.225Z,40.58
2017-08-05T17:22:04.683Z,43.29
2017-08-05T17:24:34.152Z,43.06
2017-08-05T17:27:03.613Z,43.62
2017-08-05T17:29:33.108Z,44.42
2017-08-05T17:32:02.549Z,44.34
2017-08-05T17:34:32.008Z,44.05
2017-08-05T17:37:01.472Z,44.14
2017-08-05T17:39:30.962Z,44.29
2017-08-05T17:42:00.437Z,44.61
2017-08-05T17:44:29.912Z,45.38
2017-08-05T17:46:59.379Z,46.16
2017-08-05T17:49:28.847Z,47.21
2017-08-05T17:51:58.289Z,47.44
2017-08-05T17:54:27.735Z,48.15
2017-08-05T17:56:57.180Z,48.31
2017-08-05T17:59:26.631Z,49.16
2017-08-05T18:01:56.088Z,50.05
2017-08-05T18:04:25.570Z,50.25
2017-08-05T18:06:55.018Z,50.85
2017-08-05T18:09:24.469Z,51.55
2017-08-05T18:11:53.945Z,51.45
2017-08-05T18:14:23.424Z,51.70
2017-08-05T18:16:52.911Z,51.44
2017-08-05T18:19:22.380Z,52.21
2017-08-05T18:21:51.834Z,53.23
2017-08-05T18:24:21.326Z,54.05
2017-08-05T18:26:50.796Z,54.36
2017-08-05T18:29:20.216Z,54.89
2017-08-05T18:31:49.703Z,55.21
2017-08-05T18:34:19.151Z,55.42
2017-08-05T18:36:48.593Z,55.17
2017-08-05T18:39:18.037Z,55.57
2017-08-05T18:41:47.506Z,56.13
2017-08-05T18:44:16.938Z,56.70
2017-08-05T18:46:46.401Z,57.43
2017-08-05T18:49:15.962Z,58.48
2017-08-05T18:51:45.409Z,59.39
2017-08-05T18:54:14.853Z,59.95
2017-08-05T18:56:44.296Z,59.46
2017-08-05T18:59:13.766Z,58.79
2017-08-05T19:01:43.401Z,58.77
2017-08-05T19:04:13.648Z,58.72
2017-08-05T19:06:43.110Z,58.15
2017-08-05T19:09:12.571Z,58.26
2017-08-05T19:11:42.010Z,58.95
2017-08-05T19:14:11.448Z,60.40
2017-08-05T19:16:40.945Z,62.26
2017-08-05T19:19:10.401Z,62.66
2017-08-05T19:21:39.861Z,62.78
2017-08-05T19:24:09.295Z,63.53
2017-08-05T19:26:38.732Z,63.26
2017-08-05T19:29:08.177Z,63.00
2017-08-05T19:31:37.621Z,63.28
2017-08-05T19:34:07.089Z,63.82
2017-08-05T19:36:36.555Z,63.70
2017-08-05T19:39:05.675Z,64.28
2017-08-05T19:41:35.168Z,64.03
2017-08-05T19:44:04.632Z,63.95
2017-08-05T19:46:34.073Z,64.23
2017-08-05T19:49:03.525Z,64.39
2017-08-05T19:51:33.099Z,64.50
2017-08-05T19:54:02.549Z,64.26
2017-08-05T19:56:32.001Z,63.57
2017-08-05T19:59:01.445Z,63.53
2017-08-05T20:01:30.901Z,63.61
2017-08-05T20:04:00.372Z,63.66
2017-08-05T20:06:29.817Z,63.55
2017-08-05T20:08:59.264Z,64.70
2017-08-05T20:11:28.757Z,64.61
2017-08-05T20:13:58.206Z,65.50
2017-08-05T20:16:27.657Z,65.43
2017-08-05T20:18:57.110Z,65.05
2017-08-05T20:21:26.527Z,64.98
2017-08-05T20:23:55.976Z,65.58
2017-08-05T20:26:25.459Z,65.12
2017-08-05T20:28:54.917Z,65.12
2017-08-05T20:31:24.403Z,65.04
2017-08-05T20:33:53.869Z,65.45
2017-08-05T20:36:23.315Z,65.64
2017-08-05T20:38:52.756Z,65.78
2017-08-05T20:41:22.207Z,66.08
2017-08-05T20:43:51.746Z,66.56
2017-08-05T20:46:21.177Z,66.70
2017-08-05T20:48:50.640Z,67.28
2017-08-05T20:51:20.085Z,67.92
2017-08-05T20:53:49.560Z,67.87
2017-08-05T20:56:18.997Z,67.69
2017-08-05T20:58:48.456Z,67.72
2017-08-05T21:01:17.905Z,67.71
2017-08-05T21:03:47.360Z,67.81
2017-08-05T21:06:16.812Z,67.92
2017-08-05T21:08:46.274Z,68.13
2017-08-05T21:11:15.761Z,68.32
2017-08-05T21:13:45.197Z,68.14
2017-08-05T21:16:14.657Z,67.98
2017-08-05T21:18:44.114Z,66.73
2017-08-05T21:21:13.597Z,65.76
2017-08-05T21:23:43.041Z,65.56
2017-08-05T21:26:12.510Z,67.08
2017-08-05T21:28:41.954Z,68.36
2017-08-05T21:31:11.406Z,68.36
2017-08-05T21:33:40.877Z,68.03
2017-08-05T21:36:10.305Z,67.97
2017-08-05T21:38:39.786Z,67.98
2017-08-05T21:41:09.234Z,68.65
2017-08-05T21:43:38.697Z,69.91
2017-08-05T21:46:08.177Z,69.88
2017-08-05T21:48:37.631Z,70.01
2017-08-05T21:51:07.070Z,69.74
2017-08-05T21:53:36.515Z,69.60
2017-08-05T21:56:05.977Z,69.85
2017-08-05T21:58:35.436Z,70.59
2017-08-05T22:01:04.878Z,70.91
2017-08-05T22:03:34.167Z,70.82
2017-08-05T22:06:03.609Z,70.70
2017-08-05T22:08:32.855Z,70.77
2017-08-05T22:11:02.311Z,70.78
2017-08-05T22:13:31.744Z,70.84
2017-08-05T22:16:01.206Z,70.91
2017-08-05T22:18:30.669Z,71.16
2017-08-05T22:21:00.127Z,71.33
2017-08-05T22:23:29.567Z,71.30
2017-08-05T22:25:59.019Z,72.07
2017-08-05T22:28:28.474Z,72.23
2017-08-05T22:30:57.927Z,72.54
2017-08-05T22:33:27.386Z,73.32
2017-08-05T22:35:57.020Z,72.83
2017-08-05T22:38:26.474Z,72.69
2017-08-05T22:40:55.901Z,72.39
2017-08-05T22:43:25.389Z,72.51
2017-08-05T22:45:54.836Z,72.84
2017-08-05T22:48:24.282Z,73.01
2017-08-05T22:50:53.720Z,73.07
2017-08-05T22:53:23.199Z,72.85
2017-08-05T22:55:52.698Z,72.95
2017-08-05T22:58:22.158Z,73.11
2017-08-05T23:00:51.621Z,72.66
2017-08-05T23:03:21.062Z,72.05
2017-08-05T23:05:50.506Z,71.79
2017-08-05T23:08:19.957Z,71.88
2017-08-05T23:10:49.410Z,72.41
2017-08-05T23:13:18.853Z,74.56
2017-08-05T23:15:48.144Z,75.89
2017-08-05T23:18:17.679Z,77.60
2017-08-05T23:20:47.158Z,78.66
2017-08-05T23:23:16.593Z,79.27
2017-08-05T23:25:46.041Z,78.10
2017-08-05T23:28:15.289Z,79.68
2017-08-05T23:30:45.049Z,81.76
2017-08-05T23:33:14.516Z,83.36
2017-08-05T23:35:44.003Z,85.44
2017-08-05T23:38:13.422Z,85.94
2017-08-05T23:40:42.872Z,86.44
2017-08-05T23:43:12.394Z,86.68
2017-08-05T23:45:41.876Z,87.00
2017-08-05T23:48:11.315Z,87.34
2017-08-05T23:50:40.762Z,88.32
2017-08-05T23:53:10.209Z,87.71
2017-08-05T23:55:39.813Z,88.13
2017-08-05T23:58:09.286Z,88.78
